createdAt,value
2023-03-27T00:01:20.104Z,9.70
2023-03-27T00:06:25.407Z,9.70
2023-03-27T00:11:27.918Z,9.60
2023-03-27T00:16:32.632Z,9.50
2023-03-27T00:21:35.347Z,9.40
2023-03-27T00:26:40.674Z,9.20
2023-03-27T00:31:43.035Z,9.10
2023-03-27T00:36:51.359Z,9.00
2023-03-27T00:41:58.886Z,8.90
2023-03-27T00:47:04.394Z,8.90
2023-03-27T00:52:08.602Z,8.90
2023-03-27T00:57:16.331Z,9.00
2023-03-27T01:02:19.351Z,9.10
2023-03-27T01:07:22.788Z,9.10
2023-03-27T01:12:55.130Z,9.20
2023-03-27T01:18:09.519Z,9.10
2023-03-27T01:23:59.413Z,9.00
2023-03-27T01:29:13.850Z,9.00
2023-03-27T01:34:43.572Z,9.10
2023-03-27T01:40:12.799Z,9.10
2023-03-27T01:45:25.376Z,9.20
2023-03-27T01:50:40.480Z,9.20
2023-03-27T01:55:48.080Z,9.20
2023-03-27T02:00:55.448Z,9.20
2023-03-27T02:06:19.477Z,9.20
2023-03-27T02:11:28.981Z,9.10
2023-03-27T02:16:35.380Z,9.10
2023-03-27T02:21:39.406Z,9.00
2023-03-27T02:26:42.543Z,9.00
2023-03-27T02:32:02.593Z,9.00
2023-03-27T02:37:32.168Z,8.90
2023-03-27T02:43:11.600Z,8.80
2023-03-27T02:48:27.620Z,8.80
2023-03-27T02:53:35.328Z,8.70
2023-03-27T02:58:52.483Z,8.70
2023-03-27T03:04:18.133Z,8.70
2023-03-27T03:09:41.136Z,8.60
2023-03-27T03:14:44.393Z,8.50
2023-03-27T03:19:46.919Z,8.50
2023-03-27T03:24:49.296Z,8.40
2023-03-27T03:29:53.183Z,8.30
2023-03-27T03:34:58.744Z,8.20
2023-03-27T03:40:11.994Z,8.20
2023-03-27T03:45:19.243Z,8.10
2023-03-27T03:50:22.978Z,8.00
2023-03-27T03:55:26.012Z,7.90
2023-03-27T04:00:39.777Z,7.80
2023-03-27T04:05:48.676Z,7.80
2023-03-27T04:10:50.946Z,7.70
2023-03-27T04:16:22.735Z,7.50
2023-03-27T04:21:26.923Z,7.30
2023-03-27T04:26:29.920Z,7.20
2023-03-27T04:32:09.742Z,7.00
2023-03-27T04:37:15.069Z,6.90
2023-03-27T04:42:30.147Z,6.90
2023-03-27T04:47:37.951Z,6.80
2023-03-27T04:52:40.986Z,6.80
2023-03-27T04:57:47.948Z,6.80
2023-03-27T05:02:54.752Z,6.70
2023-03-27T05:08:10.354Z,6.60
2023-03-27T05:13:12.831Z,6.50
2023-03-27T05:18:16.096Z,6.50
2023-03-27T05:23:19.201Z,6.50
2023-03-27T05:28:22.632Z,6.40
2023-03-27T05:33:24.854Z,6.30
2023-03-27T05:38:29.901Z,6.20
2023-03-27T05:43:54.825Z,6.10
2023-03-27T05:48:59.315Z,6.00
2023-03-27T05:54:01.594Z,5.90
2023-03-27T05:59:33.450Z,5.90
2023-03-27T06:04:52.305Z,5.90
2023-03-27T06:10:03.081Z,5.90
2023-03-27T06:15:09.512Z,5.90
2023-03-27T06:20:25.706Z,5.90
2023-03-27T06:25:33.489Z,5.90
2023-03-27T06:30:38.082Z,5.90
2023-03-27T06:36:00.733Z,5.90
2023-03-27T06:41:24.690Z,5.80
2023-03-27T06:46:45.463Z,5.90
2023-03-27T06:52:03.058Z,6.10
2023-03-27T06:57:05.619Z,6.30
2023-03-27T07:02:28.208Z,6.30
2023-03-27T07:07:30.460Z,6.30
2023-03-27T07:12:32.623Z,6.30
2023-03-27T07:17:48.111Z,6.30
2023-03-27T07:22:57.499Z,6.30
2023-03-27T07:28:22.310Z,6.40
2023-03-27T07:33:25.265Z,6.60
2023-03-27T07:38:27.620Z,6.80
2023-03-27T07:43:42.321Z,7.00
2023-03-27T07:48:45.417Z,7.30
2023-03-27T07:53:58.532Z,7.50
2023-03-27T07:59:06.881Z,7.60
2023-03-27T08:04:09.304Z,7.80
2023-03-27T08:09:14.460Z,7.90
2023-03-27T08:14:17.320Z,8.10
2023-03-27T08:19:21.309Z,8.30
2023-03-27T08:24:27.853Z,8.50
2023-03-27T08:29:53.258Z,8.60
2023-03-27T08:34:56.569Z,8.90
2023-03-27T08:40:02.260Z,9.20
2023-03-27T08:45:28.535Z,9.40
2023-03-27T08:50:49.800Z,9.70
2023-03-27T08:55:54.766Z,10.50
2023-03-27T09:01:24.047Z,11.00
2023-03-27T09:06:52.741Z,11.00
2023-03-27T09:11:55.741Z,10.60
2023-03-27T09:17:20.739Z,10.60
2023-03-27T09:22:29.148Z,10.70
2023-03-27T09:27:39.183Z,10.90
2023-03-27T09:33:05.917Z,11.40
2023-03-27T09:38:34.035Z,11.80
2023-03-27T09:44:07.942Z,11.90
2023-03-27T09:49:23.976Z,12.10
2023-03-27T09:54:30.121Z,12.10
2023-03-27T09:59:38.266Z,12.10
2023-03-27T10:05:12.253Z,12.20
2023-03-27T10:10:20.516Z,11.70
2023-03-27T10:15:43.894Z,11.30
2023-03-27T10:20:59.606Z,11.00
2023-03-27T10:26:08.513Z,10.90
2023-03-27T10:31:32.203Z,11.30
2023-03-27T10:36:47.479Z,12.50
2023-03-27T10:41:54.939Z,13.70
2023-03-27T10:46:57.710Z,13.50
2023-03-27T10:52:12.972Z,13.20
2023-03-27T10:57:54.509Z,13.30
2023-03-27T11:03:26.355Z,13.50
2023-03-27T11:08:53.373Z,13.50
2023-03-27T11:14:05.437Z,13.90
2023-03-27T11:19:10.833Z,13.80
2023-03-27T11:24:51.957Z,13.20
2023-03-27T11:30:10.206Z,13.70
2023-03-27T11:35:28.689Z,14.80
2023-03-27T11:40:51.985Z,14.80
2023-03-27T11:46:26.721Z,13.90
2023-03-27T11:51:32.504Z,13.60
2023-03-27T11:56:54.855Z,13.70
2023-03-27T12:02:28.993Z,14.30
2023-03-27T12:07:47.373Z,14.70
2023-03-27T12:13:17.104Z,14.70
2023-03-27T12:18:41.269Z,14.60
2023-03-27T12:24:06.745Z,14.90
2023-03-27T12:29:33.338Z,15.00
2023-03-27T12:34:53.169Z,15.70
2023-03-27T12:39:59.702Z,15.40
2023-03-27T12:45:09.589Z,15.00
2023-03-27T12:50:21.436Z,15.10
2023-03-27T12:55:32.262Z,14.70
2023-03-27T13:00:34.458Z,14.40
2023-03-27T13:06:00.177Z,14.30
2023-03-27T13:11:17.636Z,13.80
2023-03-27T13:16:50.635Z,13.80
2023-03-27T13:22:17.747Z,14.30
2023-03-27T13:27:21.073Z,14.90
2023-03-27T13:32:40.602Z,15.00
2023-03-27T13:38:04.602Z,15.10
2023-03-27T13:43:28.034Z,15.30
2023-03-27T13:49:32.413Z,15.20
2023-03-27T13:55:24.719Z,15.10
2023-03-27T14:01:19.087Z,14.80
2023-03-27T14:06:59.663Z,14.60
2023-03-27T14:12:17.578Z,14.30
2023-03-27T14:18:01.824Z,14.00
2023-03-27T14:23:18.068Z,13.90
2023-03-27T14:28:46.875Z,14.20
2023-03-27T14:33:58.249Z,14.40
2023-03-27T14:39:22.999Z,14.70
2023-03-27T14:44:32.695Z,13.90
2023-03-27T14:49:47.512Z,13.60
2023-03-27T14:54:55.690Z,13.50
2023-03-27T15:00:07.022Z,13.40
2023-03-27T15:05:19.582Z,13.70
2023-03-27T15:10:31.669Z,13.80
2023-03-27T15:15:59.906Z,13.90
2023-03-27T15:21:14.905Z,13.60
2023-03-27T15:26:27.676Z,13.40
2023-03-27T15:31:31.272Z,13.30
2023-03-27T15:36:37.519Z,13.40
2023-03-27T15:41:42.090Z,13.40
2023-03-27T15:46:48.762Z,13.20
2023-03-27T15:51:51.380Z,13.10
2023-03-27T15:57:09.788Z,13.20
2023-03-27T16:02:16.994Z,13.10
2023-03-27T16:07:25.484Z,13.00
2023-03-27T16:12:32.789Z,12.70
2023-03-27T16:17:44.948Z,12.60
2023-03-27T16:22:47.240Z,12.50
2023-03-27T16:27:58.789Z,12.40
2023-03-27T16:33:02.523Z,12.50
2023-03-27T16:38:04.850Z,12.40
2023-03-27T16:43:08.073Z,12.30
2023-03-27T16:48:11.246Z,12.10
2023-03-27T16:53:16.218Z,11.90
2023-03-27T16:58:18.638Z,11.80
2023-03-27T17:03:21.217Z,11.60
2023-03-27T17:08:24.534Z,11.50
2023-03-27T17:13:28.408Z,11.50
2023-03-27T17:18:32.336Z,11.50
2023-03-27T17:23:34.887Z,11.60
2023-03-27T17:28:37.203Z,11.70
2023-03-27T17:33:39.320Z,11.70
2023-03-27T17:38:44.592Z,11.70
2023-03-27T17:43:47.164Z,11.60
2023-03-27T17:48:49.720Z,11.60
2023-03-27T17:53:51.962Z,11.70
2023-03-27T17:58:56.644Z,11.70
2023-03-27T18:04:00.638Z,11.80
2023-03-27T18:09:03.313Z,11.60
2023-03-27T18:14:05.693Z,11.50
2023-03-27T18:19:09.333Z,11.40
2023-03-27T18:24:11.541Z,11.30
2023-03-27T18:29:14.411Z,11.20
2023-03-27T18:34:17.077Z,11.20
2023-03-27T18:39:20.034Z,11.10
2023-03-27T18:44:22.230Z,11.10
2023-03-27T18:49:26.975Z,11.10
2023-03-27T18:54:31.689Z,11.10
2023-03-27T18:59:35.238Z,11.10
2023-03-27T19:04:39.389Z,11.00
2023-03-27T19:09:42.068Z,11.10
2023-03-27T19:14:45.378Z,11.10
2023-03-27T19:20:16.962Z,11.10
2023-03-27T19:25:27.702Z,11.10
2023-03-27T19:30:30.632Z,11.10
2023-03-27T19:35:32.871Z,11.00
2023-03-27T19:40:35.120Z,10.90
2023-03-27T19:45:37.340Z,10.90
2023-03-27T19:50:39.588Z,10.70
2023-03-27T19:55:50.461Z,10.70
2023-03-27T20:00:54.723Z,10.50
2023-03-27T20:06:07.518Z,10.30
2023-03-27T20:11:10.868Z,10.20
2023-03-27T20:16:14.471Z,10.00
2023-03-27T20:21:17.398Z,9.90
2023-03-27T20:26:22.502Z,9.90
2023-03-27T20:31:31.844Z,9.90
2023-03-27T20:36:35.484Z,9.90
2023-03-27T20:41:51.395Z,9.80
2023-03-27T20:46:55.198Z,9.70
2023-03-27T20:51:59.844Z,9.70
2023-03-27T20:57:02.957Z,9.60
2023-03-27T21:02:06.136Z,9.50
2023-03-27T21:07:09.660Z,9.40
2023-03-27T21:12:11.980Z,9.40
2023-03-27T21:17:14.196Z,9.40
2023-03-27T21:22:16.528Z,9.30
2023-03-27T21:27:18.867Z,9.30
2023-03-27T21:32:21.011Z,9.30
2023-03-27T21:37:23.452Z,9.20
2023-03-27T21:42:25.692Z,9.10
2023-03-27T21:47:40.842Z,9.10
2023-03-27T21:52:49.117Z,9.00
2023-03-27T21:57:52.356Z,9.00
2023-03-27T22:02:54.703Z,9.00
2023-03-27T22:07:58.209Z,9.00
2023-03-27T22:13:01.585Z,9.00
2023-03-27T22:18:03.847Z,9.10
2023-03-27T22:23:06.405Z,9.10
2023-03-27T22:28:09.604Z,9.00
2023-03-27T22:33:11.788Z,9.00
2023-03-27T22:38:13.973Z,9.00
2023-03-27T22:43:22.968Z,9.00
2023-03-27T22:48:26.223Z,9.00
2023-03-27T22:53:32.044Z,9.00
2023-03-27T22:58:34.822Z,9.00
2023-03-27T23:03:40.357Z,9.00
2023-03-27T23:08:42.546Z,9.00
2023-03-27T23:13:48.350Z,9.00
2023-03-27T23:18:53.483Z,9.00
2023-03-27T23:24:08.070Z,9.10
2023-03-27T23:29:10.984Z,9.10
2023-03-27T23:34:13.293Z,9.10
2023-03-27T23:39:15.458Z,9.10
2023-03-27T23:44:18.892Z,9.20
2023-03-27T23:49:21.121Z,9.20
2023-03-27T23:54:24.897Z,9.20
2023-03-27T23:59:27.142Z,9.30
